Time,TemperatureF,DewpointF,PressureIn,WindDirection,WindDirectionDegrees,WindSpeedMPH,WindSpeedGustMPH,Humidity,HourlyPrecipIn,Conditions,Clouds,dailyrainin,SolarRadiationWatts/m^2,SoftwareType,DateUTC
2013-01-29 00:00:00,54.3,51.1,30.06,West,277,6.0,11.0,89,0.00,,---,0.00,0.00,VWS V14.00,2013-01-29 05:00:00,
2013-01-29 00:03:00,54.4,51.2,30.06,WSW,243,2.0,10.0,89,0.00,,---,0.00,0.00,VWS V14.00,2013-01-29 05:03:00,
2013-01-29 00:05:00,54.4,51.2,30.06,SW,218,6.0,10.0,89,0.00,,---,0.00,0.00,VWS V14.00,2013-01-29 05:05:00,
2013-01-29 00:13:00,54.4,51.2,30.07,SW,227,9.0,11.0,89,0.00,,---,0.00,0.00,VWS V14.00,2013-01-29 05:13:00,
2013-01-29 00:18:00,54.4,51.2,30.07,WSW,240,8.0,10.0,89,0.00,,---,0.00,0.00,VWS V14.00,2013-01-29 05:18:00,
2013-01-29 00:23:00,54.5,51.3,30.06,SSW,211,9.0,9.0,89,0.00,,---,0.00,0.00,VWS V14.00,2013-01-29 05:23:00,
2013-01-29 00:28:00,54.5,51.3,30.06,SW,226,7.0,11.0,89,0.00,,---,0.00,0.00,VWS V14.00,2013-01-29 05:28:00,
2013-01-29 00:33:00,54.5,51.3,30.06,WSW,252,6.0,10.0,89,0.00,,---,0.00,0.00,VWS V14.00,2013-01-29 05:33:00,
2013-01-29 00:38:00,54.6,51.4,30.06,West,267,5.0,8.0,89,0.00,,---,0.00,0.00,VWS V14.00,2013-01-29 05:38:00,
2013-01-29 00:43:00,54.6,51.7,30.07,West,265,2.0,8.0,90,0.00,,---,0.00,0.00,VWS V14.00,2013-01-29 05:43:00,
2013-01-29 00:48:00,54.5,51.6,30.06,West,273,1.0,6.0,90,0.00,,---,0.00,0.00,VWS V14.00,2013-01-29 05:48:00,
2013-01-29 00:53:00,54.4,51.5,30.06,SW,223,8.0,13.0,90,0.00,,---,0.00,0.00,VWS V14.00,2013-01-29 05:53:00,
2013-01-29 00:58:00,54.4,51.5,30.06,South,187,1.0,10.0,90,0.00,,---,0.00,0.00,VWS V14.00,2013-01-29 05:58:00,
2013-01-29 01:03:00,54.2,51.3,30.06,WSW,247,8.0,8.0,90,0.00,,---,0.00,0.00,VWS V14.00,2013-01-29 06:03:00,
2013-01-29 01:08:00,54.1,51.2,30.06,SW,234,1.0,8.0,90,0.00,,---,0.00,0.00,VWS V14.00,2013-01-29 06:08:00,
2013-01-29 01:13:00,54.0,51.1,30.05,SSW,200,2.0,8.0,90,0.00,,---,0.00,0.00,VWS V14.00,2013-01-29 06:13:00,
2013-01-29 01:18:00,53.9,51.0,30.05,WSW,242,5.0,7.0,90,0.00,,---,0.00,0.00,VWS V14.00,2013-01-29 06:18:00,
2013-01-29 01:23:00,53.8,50.9,30.05,WSW,254,4.0,9.0,90,0.00,,---,0.00,0.00,VWS V14.00,2013-01-29 06:23:00,
2013-01-29 01:28:00,53.7,50.8,30.05,SW,220,2.0,7.0,90,0.00,,---,0.00,0.00,VWS V14.00,2013-01-29 06:28:00,
2013-01-29 01:33:00,53.6,50.7,30.05,WSW,248,3.0,6.0,90,0.00,,---,0.00,0.00,VWS V14.00,2013-01-29 06:33:00,
2013-01-29 01:38:00,53.6,50.7,30.05,SW,234,2.0,8.0,90,0.00,,---,0.00,0.00,VWS V14.00,2013-01-29 06:38:00,
2013-01-29 01:43:00,53.5,50.6,30.04,WSW,242,7.0,11.0,90,0.00,,---,0.00,0.00,VWS V14.00,2013-01-29 06:43:00,
2013-01-29 01:48:00,53.5,50.6,30.04,West,263,6.0,7.0,90,0.00,,---,0.00,0.00,VWS V14.00,2013-01-29 06:48:00,
2013-01-29 01:53:00,53.5,50.6,30.04,SSW,196,8.0,10.0,90,0.00,,---,0.00,0.00,VWS V14.00,2013-01-29 06:53:00,
2013-01-29 01:58:00,53.5,50.6,30.04,SSW,209,4.0,8.0,90,0.00,,---,0.00,0.00,VWS V14.00,2013-01-29 06:58:00,
2013-01-29 02:04:00,53.7,50.8,30.04,SW,228,5.0,13.0,90,0.00,,---,0.00,0.00,VWS V14.00,2013-01-29 07:04:00,
2013-01-29 02:09:00,53.8,50.9,30.04,WNW,282,2.0,9.0,90,0.00,,---,0.00,0.00,VWS V14.00,2013-01-29 07:09:00,
2013-01-29 02:14:00,53.8,50.9,30.04,WNW,300,3.0,7.0,90,0.00,,---,0.00,0.00,VWS V14.00,2013-01-29 07:14:00,
2013-01-29 02:19:00,53.8,50.9,30.04,West,267,7.0,12.0,90,0.00,,---,0.00,0.00,VWS V14.00,2013-01-29 07:19:00,
2013-01-29 02:24:00,53.8,50.9,30.04,WSW,246,8.0,11.0,90,0.00,,---,0.00,0.00,VWS V14.00,2013-01-29 07:24:00,
2013-01-29 02:29:00,53.9,51.0,30.04,West,265,3.0,8.0,90,0.00,,---,0.00,0.00,VWS V14.00,2013-01-29 07:29:00,
2013-01-29 02:34:00,53.9,51.0,30.03,WSW,238,5.0,11.0,90,0.00,,---,0.00,0.00,VWS V14.00,2013-01-29 07:34:00,
2013-01-29 02:39:00,54.0,51.1,30.03,SSW,202,9.0,13.0,90,0.00,,---,0.00,0.00,VWS V14.00,2013-01-29 07:39:00,
2013-01-29 02:44:00,54.2,51.3,30.03,WNW,301,4.0,8.0,90,0.00,,---,0.00,0.00,VWS V14.00,2013-01-29 07:44:00,
2013-01-29 02:49:00,54.4,51.5,30.03,West,259,2.0,15.0,90,0.00,,---,0.00,0.00,VWS V14.00,2013-01-29 07:49:00,
2013-01-29 02:54:00,54.5,51.6,30.03,West,268,1.0,14.0,90,0.00,,---,0.00,0.00,VWS V14.00,2013-01-29 07:54:00,
2013-01-29 02:59:00,54.7,51.8,30.03,West,269,6.0,13.0,90,0.00,,---,0.00,0.00,VWS V14.00,2013-01-29 07:59:00,
2013-01-29 03:04:00,54.8,51.9,30.03,SW,234,5.0,8.0,90,0.00,,---,0.00,0.00,VWS V14.00,2013-01-29 08:04:00,
2013-01-29 03:09:00,55.0,52.1,30.03,SW,228,7.0,13.0,90,0.00,,---,0.00,0.00,VWS V14.00,2013-01-29 08:09:00,
2013-01-29 03:14:00,55.1,52.2,30.03,West,264,5.0,11.0,90,0.00,,---,0.00,0.00,VWS V14.00,2013-01-29 08:14:00,
2013-01-29 03:19:00,55.3,52.1,30.02,SW,217,10.0,18.0,89,0.00,,---,0.00,0.00,VWS V14.00,2013-01-29 08:19:00,
2013-01-29 03:24:00,55.3,52.1,30.02,SW,231,2.0,8.0,89,0.00,,---,0.00,0.00,VWS V14.00,2013-01-29 08:24:00,
2013-01-29 03:29:00,55.3,52.1,30.02,SW,232,4.0,13.0,89,0.00,,---,0.00,0.00,VWS V14.00,2013-01-29 08:29:00,
2013-01-29 03:34:00,55.3,52.1,30.02,West,272,7.0,10.0,89,0.00,,---,0.00,0.00,VWS V14.00,2013-01-29 08:34:00,
2013-01-29 03:39:00,55.2,52.0,30.02,SSW,209,7.0,14.0,89,0.00,,---,0.00,0.00,VWS V14.00,2013-01-29 08:39:00,
2013-01-29 03:44:00,55.1,51.9,30.02,SSW,211,7.0,11.0,89,0.00,,---,0.00,0.00,VWS V14.00,2013-01-29 08:44:00,
2013-01-29 03:49:00,55.0,51.8,30.02,WSW,244,5.0,14.0,89,0.00,,---,0.00,0.00,VWS V14.00,2013-01-29 08:49:00,
2013-01-29 03:54:00,55.0,51.8,30.01,SW,226,4.0,14.0,89,0.00,,---,0.00,0.00,VWS V14.00,2013-01-29 08:54:00,
2013-01-29 03:59:00,55.0,51.8,30.01,SW,225,5.0,12.0,89,0.00,,---,0.00,0.00,VWS V14.00,2013-01-29 08:59:00,
2013-01-29 04:04:00,55.1,51.9,30.01,SW,221,4.0,15.0,89,0.00,,---,0.00,0.00,VWS V14.00,2013-01-29 09:04:00,
2013-01-29 04:09:00,55.0,51.8,30.01,SW,217,5.0,15.0,89,0.00,,---,0.00,0.00,VWS V14.00,2013-01-29 09:09:00,
2013-01-29 04:14:00,55.1,51.9,30.01,SW,217,5.0,13.0,89,0.00,,---,0.00,0.00,VWS V14.00,2013-01-29 09:14:00,
2013-01-29 04:19:00,55.0,51.8,30.00,SSW,211,7.0,10.0,89,0.00,,---,0.00,0.00,VWS V14.00,2013-01-29 09:19:00,
2013-01-29 04:24:00,55.0,51.8,30.00,WSW,244,4.0,11.0,89,0.00,,---,0.00,0.00,VWS V14.00,2013-01-29 09:24:00,
2013-01-29 04:29:00,55.0,51.8,30.00,SW,219,8.0,11.0,89,0.00,,---,0.00,0.00,VWS V14.00,2013-01-29 09:29:00,
2013-01-29 04:34:00,55.0,51.8,30.00,SW,224,6.0,12.0,89,0.00,,---,0.00,0.00,VWS V14.00,2013-01-29 09:34:00,
2013-01-29 04:39:00,55.0,51.8,30.00,SW,232,4.0,11.0,89,0.00,,---,0.00,0.00,VWS V14.00,2013-01-29 09:39:00,
2013-01-29 04:44:00,55.0,51.8,30.00,WSW,246,7.0,11.0,89,0.00,,---,0.00,0.00,VWS V14.00,2013-01-29 09:44:00,
2013-01-29 04:49:00,55.0,51.8,30.00,SSW,195,6.0,11.0,89,0.00,,---,0.00,0.00,VWS V14.00,2013-01-29 09:49:00,
2013-01-29 04:54:00,55.1,51.9,30.00,SW,227,4.0,12.0,89,0.00,,---,0.00,0.00,VWS V14.00,2013-01-29 09:54:00,
2013-01-29 04:59:00,55.1,51.9,29.99,SW,223,6.0,11.0,89,0.00,,---,0.00,0.00,VWS V14.00,2013-01-29 09:59:00,
2013-01-29 05:04:00,55.1,51.9,30.00,WSW,254,8.0,11.0,89,0.00,,---,0.00,0.00,VWS V14.00,2013-01-29 10:04:00,
2013-01-29 05:09:00,55.1,51.9,30.00,SW,223,4.0,8.0,89,0.00,,---,0.00,0.00,VWS V14.00,2013-01-29 10:09:00,
2013-01-29 05:14:00,55.1,51.9,30.00,WSW,254,4.0,16.0,89,0.00,,---,0.00,0.00,VWS V14.00,2013-01-29 10:14:00,
2013-01-29 05:19:00,55.0,51.8,30.00,SW,220,4.0,10.0,89,0.00,,---,0.00,0.00,VWS V14.00,2013-01-29 10:19:00,
2013-01-29 05:24:00,55.0,51.8,30.00,SW,231,2.0,9.0,89,0.00,,---,0.00,0.00,VWS V14.00,2013-01-29 10:24:00,
2013-01-29 05:29:00,55.0,51.8,30.00,WSW,245,0.0,9.0,89,0.00,,---,0.00,0.00,VWS V14.00,2013-01-29 10:29:00,
2013-01-29 05:34:00,55.1,51.9,30.00,SW,234,8.0,14.0,89,0.00,,---,0.00,0.00,VWS V14.00,2013-01-29 10:34:00,
2013-01-29 05:39:00,55.2,52.0,30.00,SSW,213,5.0,8.0,89,0.00,,---,0.00,0.00,VWS V14.00,2013-01-29 10:39:00,
2013-01-29 05:44:00,55.3,52.1,30.00,WSW,243,7.0,11.0,89,0.00,,---,0.00,0.00,VWS V14.00,2013-01-29 10:44:00,
2013-01-29 05:49:00,55.3,52.1,30.00,West,263,2.0,10.0,89,0.00,,---,0.00,0.00,VWS V14.00,2013-01-29 10:49:00,
2013-01-29 05:54:00,55.4,52.2,30.01,West,264,3.0,8.0,89,0.00,,---,0.00,0.00,VWS V14.00,2013-01-29 10:54:00,
2013-01-29 05:59:00,55.4,52.2,30.01,West,280,7.0,10.0,89,0.00,,---,0.00,0.00,VWS V14.00,2013-01-29 10:59:00,
2013-01-29 06:04:00,55.4,52.2,30.01,WSW,246,4.0,10.0,89,0.00,,---,0.00,0.00,VWS V14.00,2013-01-29 11:04:00,
2013-01-29 06:09:00,55.5,52.3,30.01,SSW,210,9.0,10.0,89,0.00,,---,0.00,0.00,VWS V14.00,2013-01-29 11:09:00,
2013-01-29 06:14:00,55.5,52.3,30.01,West,261,6.0,13.0,89,0.00,,---,0.00,0.00,VWS V14.00,2013-01-29 11:14:00,
2013-01-29 06:19:00,55.5,52.3,30.01,WSW,238,4.0,11.0,89,0.00,,---,0.00,0.00,VWS V14.00,2013-01-29 11:19:00,
2013-01-29 06:24:00,55.5,52.3,30.01,SW,227,8.0,12.0,89,0.00,,---,0.00,0.00,VWS V14.00,2013-01-29 11:24:00,
2013-01-29 06:29:00,55.5,52.3,30.01,WSW,237,2.0,7.0,89,0.00,,---,0.00,0.00,VWS V14.00,2013-01-29 11:29:00,
2013-01-29 06:34:00,55.4,52.2,30.01,SSW,196,8.0,9.0,89,0.00,,---,0.00,0.00,VWS V14.00,2013-01-29 11:34:00,
2013-01-29 06:39:00,55.3,52.1,30.01,SSW,213,4.0,11.0,89,0.00,,---,0.00,0.00,VWS V14.00,2013-01-29 11:39:00,
2013-01-29 06:44:00,55.2,52.0,30.01,SW,227,6.0,10.0,89,0.00,,---,0.00,0.00,VWS V14.00,2013-01-29 11:44:00,
2013-01-29 06:49:00,55.2,52.0,30.01,SW,236,6.0,13.0,89,0.00,,---,0.00,0.00,VWS V14.00,2013-01-29 11:49:00,
2013-01-29 06:54:00,55.1,51.9,30.01,WSW,241,4.0,11.0,89,0.00,,---,0.00,0.00,VWS V14.00,2013-01-29 11:54:00,
2013-01-29 06:59:00,55.1,51.9,30.01,WSW,239,5.0,10.0,89,0.00,,---,0.00,0.00,VWS V14.00,2013-01-29 11:59:00,
2013-01-29 07:04:00,55.1,51.9,30.01,WSW,258,0.0,12.0,89,0.00,,---,0.00,0.00,VWS V14.00,2013-01-29 12:04:00,
2013-01-29 07:09:00,55.0,51.8,30.01,SW,229,6.0,10.0,89,0.00,,---,0.00,0.00,VWS V14.00,2013-01-29 12:09:00,
2013-01-29 07:14:00,54.9,51.7,30.01,SW,217,4.0,10.0,89,0.00,,---,0.00,0.00,VWS V14.00,2013-01-29 12:14:00,
2013-01-29 07:19:00,54.9,51.7,30.01,SSW,201,6.0,7.0,89,0.00,,---,0.00,0.00,VWS V14.00,2013-01-29 12:19:00,
2013-01-29 07:24:00,54.8,51.6,30.01,South,188,5.0,6.0,89,0.00,,---,0.00,0.00,VWS V14.00,2013-01-29 12:24:00,
2013-01-29 07:29:00,54.7,52.4,30.00,SSW,209,6.0,7.0,92,0.00,,---,0.00,0.00,VWS V14.00,2013-01-29 12:29:00,
2013-01-29 07:34:00,54.6,51.4,30.00,SSW,204,7.0,9.0,89,0.00,,---,0.00,0.00,VWS V14.00,2013-01-29 12:34:00,
2013-01-29 07:39:00,54.6,51.4,30.01,SW,217,5.0,8.0,89,0.00,,---,0.00,0.00,VWS V14.00,2013-01-29 12:39:00,
2013-01-29 07:44:00,54.6,51.4,30.01,South,186,6.0,7.0,89,0.00,,---,0.00,0.00,VWS V14.00,2013-01-29 12:44:00,
2013-01-29 07:49:00,54.6,51.4,30.00,SW,229,3.0,8.0,89,0.00,,---,0.00,0.00,VWS V14.00,2013-01-29 12:49:00,
2013-01-29 07:54:00,54.6,51.4,30.00,SW,217,6.0,8.0,89,0.00,,---,0.00,0.00,VWS V14.00,2013-01-29 12:54:00,
2013-01-29 07:59:00,54.7,51.5,30.00,South,182,4.0,12.0,89,0.00,,---,0.00,0.00,VWS V14.00,2013-01-29 12:59:00,
2013-01-29 08:04:00,54.6,51.4,30.00,SSW,198,6.0,10.0,89,0.00,,---,0.00,7.00,VWS V14.00,2013-01-29 13:04:00,
2013-01-29 08:09:00,54.7,51.5,30.00,SSW,200,7.0,9.0,89,0.00,,---,0.00,7.00,VWS V14.00,2013-01-29 13:09:00,
2013-01-29 08:15:00,54.7,51.5,30.00,SSW,192,6.0,11.0,89,0.00,,---,0.00,14.00,VWS V14.00,2013-01-29 13:15:00,
2013-01-29 08:20:00,54.8,51.6,30.00,WSW,242,5.0,11.0,89,0.00,,---,0.00,19.00,VWS V14.00,2013-01-29 13:20:00,
2013-01-29 08:25:00,54.8,51.9,30.00,SSW,209,6.0,9.0,90,0.00,,---,0.00,11.00,VWS V14.00,2013-01-29 13:25:00,
2013-01-29 08:30:00,54.9,52.0,30.00,SSW,192,7.0,8.0,90,0.00,,---,0.00,21.00,VWS V14.00,2013-01-29 13:30:00,
2013-01-29 08:35:00,54.9,52.0,30.00,SW,215,4.0,8.0,90,0.00,,---,0.00,21.00,VWS V14.00,2013-01-29 13:35:00,
2013-01-29 08:40:00,55.0,52.1,30.00,SW,221,10.0,12.0,90,0.00,,---,0.00,23.00,VWS V14.00,2013-01-29 13:40:00,
2013-01-29 08:45:00,55.0,52.1,30.00,SSW,199,5.0,10.0,90,0.00,,---,0.00,25.00,VWS V14.00,2013-01-29 13:45:00,
2013-01-29 08:50:00,55.0,52.1,29.99,WSW,242,6.0,8.0,90,0.00,,---,0.00,44.00,VWS V14.00,2013-01-29 13:50:00,
2013-01-29 08:55:00,55.1,52.2,30.00,SSW,200,2.0,11.0,90,0.00,,---,0.00,104.00,VWS V14.00,2013-01-29 13:55:00,
2013-01-29 09:00:00,55.2,52.3,29.99,South,188,9.0,9.0,90,0.00,,---,0.00,76.00,VWS V14.00,2013-01-29 14:00:00,
2013-01-29 09:05:00,55.4,52.2,30.00,SW,230,4.0,10.0,89,0.00,,---,0.00,127.00,VWS V14.00,2013-01-29 14:05:00,
2013-01-29 09:10:00,55.7,52.8,30.00,SSW,211,8.0,12.0,90,0.00,,---,0.00,118.00,VWS V14.00,2013-01-29 14:10:00,
2013-01-29 09:15:00,55.9,52.7,30.00,West,269,5.0,12.0,89,0.00,,---,0.00,62.00,VWS V14.00,2013-01-29 14:15:00,
2013-01-29 09:20:00,56.0,52.8,30.00,SW,217,3.0,14.0,89,0.00,,---,0.00,72.00,VWS V14.00,2013-01-29 14:20:00,
2013-01-29 09:25:00,56.1,52.9,30.00,SW,226,10.0,12.0,89,0.00,,---,0.00,81.00,VWS V14.00,2013-01-29 14:25:00,
2013-01-29 09:30:00,56.2,53.0,30.00,SSW,204,6.0,12.0,89,0.00,,---,0.00,185.00,VWS V14.00,2013-01-29 14:30:00,
2013-01-29 09:35:00,56.5,53.3,30.00,West,267,7.0,9.0,89,0.00,,---,0.00,236.00,VWS V14.00,2013-01-29 14:35:00,
2013-01-29 09:40:00,57.0,53.8,30.00,SW,226,9.0,10.0,89,0.00,,---,0.00,127.00,VWS V14.00,2013-01-29 14:40:00,
2013-01-29 09:45:00,57.4,54.2,29.99,WSW,243,5.0,10.0,89,0.00,,---,0.00,128.00,VWS V14.00,2013-01-29 14:45:00,
2013-01-29 09:50:00,57.6,54.4,29.99,SW,232,11.0,14.0,89,0.00,,---,0.00,155.00,VWS V14.00,2013-01-29 14:50:00,
2013-01-29 09:55:00,57.7,54.2,29.99,WSW,254,8.0,13.0,88,0.00,,---,0.00,134.00,VWS V14.00,2013-01-29 14:55:00,
2013-01-29 10:00:00,57.9,54.4,29.99,WSW,248,13.0,20.0,88,0.00,,---,0.00,116.00,VWS V14.00,2013-01-29 15:00:00,
2013-01-29 10:05:00,58.1,54.6,29.99,SW,233,12.0,15.0,88,0.00,,---,0.00,146.00,VWS V14.00,2013-01-29 15:05:00,
2013-01-29 10:10:00,58.2,54.7,29.98,SSW,200,9.0,14.0,88,0.00,,---,0.00,155.00,VWS V14.00,2013-01-29 15:10:00,
2013-01-29 10:15:00,58.5,55.0,29.98,SW,218,10.0,14.0,88,0.00,,---,0.00,146.00,VWS V14.00,2013-01-29 15:15:00,
2013-01-29 10:20:00,58.9,55.4,29.98,SW,227,8.0,20.0,88,0.00,,---,0.00,355.00,VWS V14.00,2013-01-29 15:20:00,
2013-01-29 10:25:00,59.2,55.7,29.98,WSW,240,8.0,13.0,88,0.00,,---,0.00,134.00,VWS V14.00,2013-01-29 15:25:00,
2013-01-29 10:30:00,59.6,55.7,29.97,SSW,213,11.0,19.0,87,0.00,,---,0.00,369.00,VWS V14.00,2013-01-29 15:30:00,
2013-01-29 10:35:00,60.0,56.1,29.98,WSW,237,15.0,16.0,87,0.00,,---,0.00,390.00,VWS V14.00,2013-01-29 15:35:00,
2013-01-29 10:40:00,60.2,56.0,29.98,SSW,199,8.0,22.0,86,0.00,,---,0.00,396.00,VWS V14.00,2013-01-29 15:40:00,
2013-01-29 10:45:00,60.4,56.2,29.98,South,186,8.0,15.0,86,0.00,,---,0.00,348.00,VWS V14.00,2013-01-29 15:45:00,
2013-01-29 10:50:00,60.6,56.4,29.98,WSW,250,7.0,15.0,86,0.00,,---,0.00,390.00,VWS V14.00,2013-01-29 15:50:00,
2013-01-29 10:55:00,60.9,56.7,29.97,SE,134,7.0,12.0,86,0.00,,---,0.00,271.00,VWS V14.00,2013-01-29 15:55:00,
2013-01-29 11:00:00,61.1,56.6,29.97,SW,236,9.0,18.0,85,0.00,,---,0.00,181.00,VWS V14.00,2013-01-29 16:00:00,
2013-01-29 11:05:00,61.3,56.8,29.97,SSW,206,18.0,21.0,85,0.00,,---,0.00,223.00,VWS V14.00,2013-01-29 16:05:00,
2013-01-29 11:10:00,61.4,56.5,29.97,WSW,240,9.0,23.0,84,0.00,,---,0.00,197.00,VWS V14.00,2013-01-29 16:10:00,
2013-01-29 11:15:00,61.7,57.2,29.96,WSW,240,25.0,25.0,85,0.00,,---,0.00,179.00,VWS V14.00,2013-01-29 16:15:00,
2013-01-29 11:20:00,61.9,57.0,29.97,South,173,9.0,25.0,84,0.00,,---,0.00,236.00,VWS V14.00,2013-01-29 16:20:00,
2013-01-29 11:25:00,61.8,56.9,29.97,SSW,205,13.0,23.0,84,0.00,,---,0.00,192.00,VWS V14.00,2013-01-29 16:25:00,
2013-01-29 11:30:00,61.6,56.7,29.96,WSW,240,18.0,24.0,84,0.00,,---,0.00,218.00,VWS V14.00,2013-01-29 16:30:00,
2013-01-29 11:35:00,61.7,57.2,29.95,SW,221,18.0,18.0,85,0.00,,---,0.00,262.00,VWS V14.00,2013-01-29 16:35:00,
2013-01-29 11:40:00,61.7,57.2,29.95,WSW,258,14.0,18.0,85,0.00,,---,0.00,258.00,VWS V14.00,2013-01-29 16:40:00,
2013-01-29 11:45:00,62.0,57.1,29.95,SW,236,6.0,6.0,84,0.00,,---,0.00,230.00,VWS V14.00,2013-01-29 16:45:00,
2013-01-29 11:50:00,62.5,57.6,29.94,SW,221,9.0,9.0,84,0.00,,---,0.00,239.00,VWS V14.00,2013-01-29 16:50:00,
2013-01-29 11:55:00,62.8,57.6,29.94,SW,223,10.0,11.0,83,0.00,,---,0.00,260.00,VWS V14.00,2013-01-29 16:55:00,
2013-01-29 12:00:00,63.1,57.5,29.94,SW,219,9.0,9.0,82,0.00,,---,0.00,262.00,VWS V14.00,2013-01-29 17:00:00,
2013-01-29 12:05:00,63.4,57.8,29.94,SW,221,10.0,12.0,82,0.00,,---,0.00,279.00,VWS V14.00,2013-01-29 17:05:00,
2013-01-29 12:10:00,63.6,58.0,29.94,SW,225,6.0,10.0,82,0.00,,---,0.00,276.00,VWS V14.00,2013-01-29 17:10:00,
2013-01-29 12:15:00,63.8,58.2,29.94,West,259,10.0,10.0,82,0.00,,---,0.00,213.00,VWS V14.00,2013-01-29 17:15:00,
2013-01-29 12:20:00,64.2,58.3,29.94,WSW,257,7.0,7.0,81,0.00,,---,0.00,171.00,VWS V14.00,2013-01-29 17:20:00,
2013-01-29 12:25:00,64.0,57.4,29.93,SW,232,16.0,22.0,79,0.00,,---,0.00,237.00,VWS V14.00,2013-01-29 17:25:00,
2013-01-29 12:30:00,63.8,57.5,29.93,WSW,242,8.0,11.0,80,0.00,,---,0.00,313.00,VWS V14.00,2013-01-29 17:30:00,
2013-01-29 12:35:00,63.7,57.4,29.93,West,279,7.0,10.0,80,0.00,,---,0.00,341.00,VWS V14.00,2013-01-29 17:35:00,
2013-01-29 12:40:00,63.7,57.4,29.92,SW,218,10.0,12.0,80,0.00,,---,0.00,480.00,VWS V14.00,2013-01-29 17:40:00,
2013-01-29 12:45:00,63.9,57.6,29.92,SW,223,9.0,14.0,80,0.00,,---,0.00,223.00,VWS V14.00,2013-01-29 17:45:00,
2013-01-29 12:50:00,64.0,57.7,29.92,WSW,244,12.0,14.0,80,0.00,,---,0.00,471.00,VWS V14.00,2013-01-29 17:50:00,
2013-01-29 12:55:00,64.4,58.1,29.91,SSW,205,6.0,8.0,80,0.00,,---,0.00,585.00,VWS V14.00,2013-01-29 17:55:00,
2013-01-29 13:00:00,64.9,58.2,29.91,SW,217,3.0,6.0,79,0.00,,---,0.00,403.00,VWS V14.00,2013-01-29 18:00:00,
2013-01-29 13:05:00,65.2,58.2,29.91,SSW,208,7.0,20.0,78,0.00,,---,0.00,708.00,VWS V14.00,2013-01-29 18:05:00,
2013-01-29 13:10:00,65.5,58.5,29.90,SW,214,8.0,12.0,78,0.00,,---,0.00,712.00,VWS V14.00,2013-01-29 18:10:00,
2013-01-29 13:15:00,65.8,58.8,29.90,SSW,212,4.0,9.0,78,0.00,,---,0.00,366.00,VWS V14.00,2013-01-29 18:15:00,
2013-01-29 13:20:00,65.8,58.0,29.90,WSW,240,14.0,14.0,76,0.00,,---,0.00,272.00,VWS V14.00,2013-01-29 18:20:00,
2013-01-29 13:25:00,65.2,57.5,29.90,WSW,243,11.0,14.0,76,0.00,,---,0.00,209.00,VWS V14.00,2013-01-29 18:25:00,
2013-01-29 13:30:00,64.8,57.4,29.90,WSW,249,19.0,21.0,77,0.00,,---,0.00,251.00,VWS V14.00,2013-01-29 18:30:00,
2013-01-29 13:35:00,64.4,57.4,29.90,SW,217,15.0,15.0,78,0.00,,---,0.00,227.00,VWS V14.00,2013-01-29 18:35:00,
2013-01-29 13:40:00,64.2,57.6,29.90,West,263,7.0,9.0,79,0.00,,---,0.00,181.00,VWS V14.00,2013-01-29 18:40:00,
2013-01-29 13:46:00,64.1,57.5,29.90,SW,218,15.0,15.0,79,0.00,,---,0.00,163.00,VWS V14.00,2013-01-29 18:46:00,
2013-01-29 13:51:00,63.9,57.3,29.90,West,263,3.0,10.0,79,0.00,,---,0.00,246.00,VWS V14.00,2013-01-29 18:51:00,
2013-01-29 13:56:00,63.9,57.6,29.90,SSE,150,5.0,21.0,80,0.00,,---,0.00,174.00,VWS V14.00,2013-01-29 18:56:00,
2013-01-29 14:01:00,63.8,57.5,29.89,WSW,238,13.0,23.0,80,0.00,,---,0.00,151.00,VWS V14.00,2013-01-29 19:01:00,
2013-01-29 14:06:00,63.6,57.3,29.89,SW,215,11.0,15.0,80,0.00,,---,0.00,120.00,VWS V14.00,2013-01-29 19:06:00,
2013-01-29 14:11:00,63.4,57.5,29.89,SW,227,6.0,9.0,81,0.00,,---,0.00,104.00,VWS V14.00,2013-01-29 19:11:00,
2013-01-29 14:16:00,63.2,57.3,29.88,SSW,206,5.0,11.0,81,0.00,,---,0.00,186.00,VWS V14.00,2013-01-29 19:16:00,
2013-01-29 14:21:00,63.2,57.3,29.88,South,178,8.0,11.0,81,0.00,,---,0.00,171.00,VWS V14.00,2013-01-29 19:21:00,
2013-01-29 14:26:00,63.2,57.3,29.87,South,183,10.0,13.0,81,0.00,,---,0.00,93.00,VWS V14.00,2013-01-29 19:26:00,
2013-01-29 14:31:00,63.1,57.2,29.87,SW,216,12.0,12.0,81,0.00,,---,0.00,213.00,VWS V14.00,2013-01-29 19:31:00,
2013-01-29 14:36:00,63.1,57.5,29.87,SSW,198,8.0,8.0,82,0.00,,---,0.00,185.00,VWS V14.00,2013-01-29 19:36:00,
2013-01-29 14:41:00,63.3,57.4,29.87,SSW,213,15.0,20.0,81,0.00,,---,0.00,144.00,VWS V14.00,2013-01-29 19:41:00,
2013-01-29 14:46:00,63.4,57.5,29.87,WSW,246,10.0,12.0,81,0.00,,---,0.00,186.00,VWS V14.00,2013-01-29 19:46:00,
2013-01-29 14:51:00,63.5,57.6,29.87,WSW,240,7.0,9.0,81,0.00,,---,0.00,200.00,VWS V14.00,2013-01-29 19:51:00,
2013-01-29 14:56:00,63.6,57.7,29.86,SSW,205,20.0,20.0,81,0.00,,---,0.00,158.00,VWS V14.00,2013-01-29 19:56:00,
2013-01-29 15:01:00,63.5,57.6,29.85,South,185,5.0,10.0,81,0.00,,---,0.00,79.00,VWS V14.00,2013-01-29 20:01:00,
2013-01-29 15:06:00,63.4,57.5,29.85,SW,223,13.0,13.0,81,0.00,,---,0.00,229.00,VWS V14.00,2013-01-29 20:06:00,
2013-01-29 15:11:00,63.5,57.6,29.85,WSW,241,14.0,29.0,81,0.00,,---,0.00,97.00,VWS V14.00,2013-01-29 20:11:00,
2013-01-29 15:16:00,63.5,57.6,29.84,SSW,208,10.0,20.0,81,0.00,,---,0.00,229.00,VWS V14.00,2013-01-29 20:16:00,
2013-01-29 15:21:00,63.7,57.8,29.85,SSW,205,11.0,18.0,81,0.00,,---,0.00,116.00,VWS V14.00,2013-01-29 20:21:00,
2013-01-29 15:26:00,63.8,57.9,29.84,South,180,9.0,10.0,81,0.00,,---,0.00,105.00,VWS V14.00,2013-01-29 20:26:00,
2013-01-29 15:31:00,63.8,57.9,29.84,SSW,211,8.0,13.0,81,0.00,,---,0.00,135.00,VWS V14.00,2013-01-29 20:31:00,
2013-01-29 15:36:00,63.8,57.9,29.84,SSW,212,11.0,20.0,81,0.00,,---,0.00,91.00,VWS V14.00,2013-01-29 20:36:00,
2013-01-29 15:41:00,63.9,58.0,29.83,SSW,200,4.0,9.0,81,0.00,,---,0.00,51.00,VWS V14.00,2013-01-29 20:41:00,
2013-01-29 15:46:00,63.8,57.9,29.83,SSW,206,14.0,14.0,81,0.00,,---,0.00,90.00,VWS V14.00,2013-01-29 20:46:00,
2013-01-29 15:51:00,63.8,57.9,29.83,West,261,8.0,10.0,81,0.00,,---,0.00,97.00,VWS V14.00,2013-01-29 20:51:00,
2013-01-29 15:56:00,63.9,58.0,29.83,SSW,200,7.0,11.0,81,0.00,,---,0.00,105.00,VWS V14.00,2013-01-29 20:56:00,
2013-01-29 16:01:00,64.0,58.1,29.82,SSW,205,6.0,12.0,81,0.00,,---,0.00,100.00,VWS V14.00,2013-01-29 21:01:00,
2013-01-29 16:06:00,64.0,58.1,29.83,SW,216,5.0,6.0,81,0.00,,---,0.00,72.00,VWS V14.00,2013-01-29 21:06:00,
2013-01-29 16:11:00,64.0,58.1,29.82,South,172,0.0,10.0,81,0.00,,---,0.00,76.00,VWS V14.00,2013-01-29 21:11:00,
2013-01-29 16:16:00,64.1,58.2,29.82,SW,228,1.0,8.0,81,0.00,,---,0.00,77.00,VWS V14.00,2013-01-29 21:16:00,
2013-01-29 16:21:00,64.1,58.2,29.82,SW,232,4.0,4.0,81,0.00,,---,0.00,62.00,VWS V14.00,2013-01-29 21:21:00,
2013-01-29 16:26:00,64.2,58.3,29.82,South,182,4.0,6.0,81,0.00,,---,0.00,58.00,VWS V14.00,2013-01-29 21:26:00,
2013-01-29 16:31:00,64.3,58.7,29.82,SW,219,2.0,7.0,82,0.00,,---,0.00,72.00,VWS V14.00,2013-01-29 21:31:00,
2013-01-29 16:36:00,64.4,58.5,29.81,SSW,192,6.0,8.0,81,0.00,,---,0.00,51.00,VWS V14.00,2013-01-29 21:36:00,
2013-01-29 16:41:00,64.5,58.5,29.81,SW,232,4.0,9.0,81,0.00,,---,0.00,28.00,VWS V14.00,2013-01-29 21:41:00,
2013-01-29 16:46:00,64.6,58.7,29.81,SW,228,6.0,8.0,81,0.00,,---,0.00,30.00,VWS V14.00,2013-01-29 21:46:00,
2013-01-29 16:51:00,64.6,58.7,29.82,WSW,252,2.0,7.0,81,0.00,,---,0.00,28.00,VWS V14.00,2013-01-29 21:51:00,
2013-01-29 16:56:00,64.7,59.1,29.81,SW,229,4.0,6.0,82,0.00,,---,0.00,44.00,VWS V14.00,2013-01-29 21:56:00,
2013-01-29 17:01:00,64.7,59.1,29.81,SW,221,10.0,10.0,82,0.00,,---,0.00,35.00,VWS V14.00,2013-01-29 22:01:00,
2013-01-29 17:06:00,64.8,59.2,29.81,SSW,207,5.0,7.0,82,0.00,,---,0.00,35.00,VWS V14.00,2013-01-29 22:06:00,
2013-01-29 17:11:00,64.8,59.2,29.81,SSW,201,5.0,7.0,82,0.00,,---,0.00,35.00,VWS V14.00,2013-01-29 22:11:00,
2013-01-29 17:16:00,64.8,58.8,29.80,South,176,5.0,6.0,81,0.00,,---,0.00,32.00,VWS V14.00,2013-01-29 22:16:00,
2013-01-29 17:21:00,64.7,58.7,29.80,South,188,3.0,4.0,81,0.00,,---,0.00,30.00,VWS V14.00,2013-01-29 22:21:00,
2013-01-29 17:26:00,64.6,59.0,29.80,South,180,5.0,9.0,82,0.00,,---,0.00,32.00,VWS V14.00,2013-01-29 22:26:00,
2013-01-29 17:31:00,64.5,58.9,29.80,SSE,156,4.0,7.0,82,0.00,,---,0.00,28.00,VWS V14.00,2013-01-29 22:31:00,
2013-01-29 17:36:00,64.4,58.8,29.80,SW,217,3.0,4.0,82,0.00,,---,0.00,16.00,VWS V14.00,2013-01-29 22:36:00,
2013-01-29 17:41:00,64.3,58.7,29.80,South,184,2.0,6.0,82,0.00,,---,0.00,9.00,VWS V14.00,2013-01-29 22:41:00,
2013-01-29 17:46:00,64.2,58.6,29.80,SSW,196,5.0,5.0,82,0.00,,---,0.00,7.00,VWS V14.00,2013-01-29 22:46:00,
2013-01-29 17:51:00,64.1,58.5,29.80,SSE,161,5.0,8.0,82,0.00,,---,0.00,0.00,VWS V14.00,2013-01-29 22:51:00,
2013-01-29 17:56:00,63.9,58.3,29.80,SE,146,2.0,5.0,82,0.00,,---,0.00,0.00,VWS V14.00,2013-01-29 22:56:00,
2013-01-29 18:01:00,63.8,58.5,29.79,SSE,161,1.0,3.0,83,0.00,,---,0.00,0.00,VWS V14.00,2013-01-29 23:01:00,
2013-01-29 18:06:00,63.6,58.3,29.79,South,180,3.0,5.0,83,0.00,,---,0.00,0.00,VWS V14.00,2013-01-29 23:06:00,
2013-01-29 18:11:00,63.5,58.2,29.79,SE,146,4.0,5.0,83,0.00,,---,0.00,0.00,VWS V14.00,2013-01-29 23:11:00,
2013-01-29 18:16:00,63.5,58.2,29.79,SSE,160,7.0,8.0,83,0.00,,---,0.00,0.00,VWS V14.00,2013-01-29 23:16:00,
2013-01-29 18:21:00,63.4,58.2,29.79,SSE,150,5.0,5.0,83,0.00,,---,0.00,0.00,VWS V14.00,2013-01-29 23:21:00,
2013-01-29 18:26:00,63.3,58.1,29.78,SSE,155,2.0,8.0,83,0.00,,---,0.00,0.00,VWS V14.00,2013-01-29 23:26:00,
2013-01-29 18:31:00,63.2,58.0,29.78,SSE,158,4.0,5.0,83,0.00,,---,0.00,0.00,VWS V14.00,2013-01-29 23:31:00,
2013-01-29 18:36:00,63.1,58.2,29.78,SSE,149,5.0,6.0,84,0.00,,---,0.00,0.00,VWS V14.00,2013-01-29 23:36:00,
2013-01-29 18:41:00,63.1,58.2,29.78,SE,144,5.0,5.0,84,0.00,,---,0.00,0.00,VWS V14.00,2013-01-29 23:41:00,
2013-01-29 18:46:00,63.0,58.1,29.77,SE,134,2.0,7.0,84,0.00,,---,0.00,0.00,VWS V14.00,2013-01-29 23:46:00,
2013-01-29 18:52:00,63.1,58.2,29.77,SSE,148,7.0,10.0,84,0.00,,---,0.00,0.00,VWS V14.00,2013-01-29 23:52:00,
2013-01-29 18:57:00,63.2,58.3,29.77,SSW,201,10.0,14.0,84,0.00,,---,0.00,0.00,VWS V14.00,2013-01-29 23:57:00,
2013-01-29 19:02:00,63.4,58.5,29.76,South,170,6.0,8.0,84,0.00,,---,0.00,0.00,VWS V14.00,2013-01-30 00:02:00,
2013-01-29 19:07:00,63.4,58.5,29.77,SSE,166,5.0,8.0,84,0.00,,---,0.00,0.00,VWS V14.00,2013-01-30 00:07:00,
2013-01-29 19:12:00,63.5,58.6,29.77,SSE,153,2.0,6.0,84,0.00,,---,0.00,0.00,VWS V14.00,2013-01-30 00:12:00,
2013-01-29 19:17:00,63.6,58.7,29.77,SSW,199,9.0,9.0,84,0.00,,---,0.00,0.00,VWS V14.00,2013-01-30 00:17:00,
2013-01-29 19:22:00,63.7,58.8,29.77,SW,221,6.0,8.0,84,0.00,,---,0.00,0.00,VWS V14.00,2013-01-30 00:22:00,
2013-01-29 19:27:00,63.7,58.8,29.77,SSE,161,4.0,10.0,84,0.00,,---,0.00,0.00,VWS V14.00,2013-01-30 00:27:00,
2013-01-29 19:32:00,63.7,58.5,29.76,SSE,164,5.0,7.0,83,0.00,,---,0.00,0.00,VWS V14.00,2013-01-30 00:32:00,
2013-01-29 19:37:00,63.5,58.6,29.76,SSW,201,7.0,7.0,84,0.00,,---,0.00,0.00,VWS V14.00,2013-01-30 00:37:00,
2013-01-29 19:42:00,63.5,58.2,29.76,SSE,154,4.0,6.0,83,0.00,,---,0.00,0.00,VWS V14.00,2013-01-30 00:42:00,
2013-01-29 19:47:00,63.4,58.5,29.75,SE,146,4.0,7.0,84,0.00,,---,0.00,0.00,VWS V14.00,2013-01-30 00:47:00,
2013-01-29 19:52:00,63.3,58.4,29.75,SSE,156,4.0,12.0,84,0.00,,---,0.00,0.00,VWS V14.00,2013-01-30 00:52:00,
2013-01-29 19:57:00,63.1,58.2,29.75,SSE,167,10.0,11.0,84,0.00,,---,0.00,0.00,VWS V14.00,2013-01-30 00:57:00,
2013-01-29 20:02:00,63.1,58.2,29.74,SSE,154,1.0,8.0,84,0.00,,---,0.00,0.00,VWS V14.00,2013-01-30 01:02:00,
2013-01-29 20:07:00,63.0,58.4,29.74,SE,146,2.0,11.0,85,0.00,,---,0.00,0.00,VWS V14.00,2013-01-30 01:07:00,
2013-01-29 20:12:00,63.0,58.4,29.74,SSE,166,5.0,8.0,85,0.00,,---,0.00,0.00,VWS V14.00,2013-01-30 01:12:00,
2013-01-29 20:17:00,62.9,58.3,29.73,SE,144,9.0,12.0,85,0.00,,---,0.00,0.00,VWS V14.00,2013-01-30 01:17:00,
2013-01-29 20:22:00,62.8,58.2,29.73,South,191,9.0,11.0,85,0.00,,---,0.00,0.00,VWS V14.00,2013-01-30 01:22:00,
2013-01-29 20:27:00,62.7,58.1,29.72,SE,138,9.0,10.0,85,0.00,,---,0.00,0.00,VWS V14.00,2013-01-30 01:27:00,
2013-01-29 20:32:00,62.7,58.1,29.72,SSE,163,7.0,9.0,85,0.00,,---,0.00,0.00,VWS V14.00,2013-01-30 01:32:00,
2013-01-29 20:37:00,62.6,58.4,29.73,South,190,10.0,11.0,86,0.00,,---,0.00,0.00,VWS V14.00,2013-01-30 01:37:00,
2013-01-29 20:42:00,62.7,58.5,29.72,SE,133,8.0,13.0,86,0.00,,---,0.00,0.00,VWS V14.00,2013-01-30 01:42:00,
2013-01-29 20:47:00,62.7,58.5,29.72,SSE,157,9.0,12.0,86,0.00,,---,0.00,0.00,VWS V14.00,2013-01-30 01:47:00,
2013-01-29 20:52:00,62.8,58.6,29.72,South,169,8.0,11.0,86,0.00,,---,0.00,0.00,VWS V14.00,2013-01-30 01:52:00,
2013-01-29 20:57:00,63.0,58.8,29.72,SSE,161,8.0,11.0,86,0.00,,---,0.00,0.00,VWS V14.00,2013-01-30 01:57:00,
2013-01-29 21:02:00,63.2,59.0,29.70,South,170,5.0,12.0,86,0.00,,---,0.00,0.00,VWS V14.00,2013-01-30 02:02:00,
2013-01-29 21:07:00,63.3,59.0,29.70,SSE,158,9.0,14.0,86,0.00,,---,0.00,0.00,VWS V14.00,2013-01-30 02:07:00,
2013-01-29 21:12:00,63.5,59.2,29.70,SSE,149,13.0,16.0,86,0.00,,---,0.00,0.00,VWS V14.00,2013-01-30 02:12:00,
2013-01-29 21:17:00,63.7,59.4,29.70,South,174,7.0,22.0,86,0.00,,---,0.00,0.00,VWS V14.00,2013-01-30 02:17:00,
2013-01-29 21:22:00,63.7,59.1,29.70,SSW,205,8.0,16.0,85,0.00,,---,0.00,0.00,VWS V14.00,2013-01-30 02:22:00,
2013-01-29 21:27:00,63.8,59.2,29.70,SSE,166,7.0,14.0,85,0.00,,---,0.00,0.00,VWS V14.00,2013-01-30 02:27:00,
2013-01-29 21:32:00,63.8,59.2,29.69,SSE,149,11.0,21.0,85,0.00,,---,0.00,0.00,VWS V14.00,2013-01-30 02:32:00,
2013-01-29 21:37:00,63.9,59.3,29.69,SSW,201,12.0,18.0,85,0.00,,---,0.00,0.00,VWS V14.00,2013-01-30 02:37:00,
2013-01-29 21:42:00,64.0,59.4,29.68,SW,221,12.0,21.0,85,0.00,,---,0.00,0.00,VWS V14.00,2013-01-30 02:42:00,
2013-01-29 21:47:00,64.1,59.5,29.68,SW,224,12.0,14.0,85,0.00,,---,0.00,0.00,VWS V14.00,2013-01-30 02:47:00,
2013-01-29 21:52:00,64.2,59.6,29.68,SSW,202,9.0,25.0,85,0.00,,---,0.00,0.00,VWS V14.00,2013-01-30 02:52:00,
2013-01-29 21:57:00,64.3,59.7,29.69,South,175,12.0,24.0,85,0.00,,---,0.00,0.00,VWS V14.00,2013-01-30 02:57:00,
2013-01-29 22:02:00,64.5,59.9,29.69,WNW,284,6.0,18.0,85,0.00,,---,0.00,0.00,VWS V14.00,2013-01-30 03:02:00,
2013-01-29 22:07:00,64.4,59.8,29.68,South,182,20.0,22.0,85,0.00,,---,0.00,0.00,VWS V14.00,2013-01-30 03:07:00,
2013-01-29 22:12:00,64.4,59.8,29.67,South,175,7.0,22.0,85,0.00,,---,0.00,0.00,VWS V14.00,2013-01-30 03:12:00,
2013-01-29 22:17:00,64.5,59.9,29.67,SSW,207,15.0,23.0,85,0.00,,---,0.00,0.00,VWS V14.00,2013-01-30 03:17:00,
2013-01-29 22:22:00,64.6,60.0,29.67,SSW,193,12.0,20.0,85,0.00,,---,0.00,0.00,VWS V14.00,2013-01-30 03:22:00,
2013-01-29 22:27:00,64.5,59.9,29.67,SE,146,9.0,20.0,85,0.00,,---,0.00,0.00,VWS V14.00,2013-01-30 03:27:00,
2013-01-29 22:32:00,64.3,59.7,29.67,SSW,213,16.0,22.0,85,0.00,,---,0.00,0.00,VWS V14.00,2013-01-30 03:32:00,
2013-01-29 22:37:00,64.2,59.6,29.66,South,188,10.0,19.0,85,0.00,,---,0.00,0.00,VWS V14.00,2013-01-30 03:37:00,
2013-01-29 22:42:00,64.1,59.8,29.66,SSE,165,20.0,20.0,86,0.00,,---,0.00,0.00,VWS V14.00,2013-01-30 03:42:00,
2013-01-29 22:47:00,64.0,59.7,29.65,SSW,209,8.0,24.0,86,0.00,,---,0.00,0.00,VWS V14.00,2013-01-30 03:47:00,
2013-01-29 22:52:00,63.8,59.5,29.64,SSE,157,7.0,21.0,86,0.00,,---,0.00,0.00,VWS V14.00,2013-01-30 03:52:00,
2013-01-29 22:57:00,63.8,59.5,29.64,SSE,160,7.0,16.0,86,0.00,,---,0.00,0.00,VWS V14.00,2013-01-30 03:57:00,
2013-01-29 23:02:00,63.7,59.4,29.64,South,169,7.0,18.0,86,0.00,,---,0.00,0.00,VWS V14.00,2013-01-30 04:02:00,
2013-01-29 23:07:00,63.6,59.3,29.64,South,174,9.0,20.0,86,0.00,,---,0.00,0.00,VWS V14.00,2013-01-30 04:07:00,
2013-01-29 23:12:00,63.6,59.3,29.63,South,169,9.0,29.0,86,0.00,,---,0.00,0.00,VWS V14.00,2013-01-30 04:12:00,
2013-01-29 23:17:00,63.7,59.4,29.63,SSW,194,12.0,20.0,86,0.00,,---,0.00,0.00,VWS V14.00,2013-01-30 04:17:00,
2013-01-29 23:22:00,63.6,59.3,29.62,SW,226,6.0,21.0,86,0.00,,---,0.00,0.00,VWS V14.00,2013-01-30 04:22:00,
2013-01-29 23:27:00,63.4,59.2,29.61,South,169,7.0,16.0,86,0.00,,---,0.00,0.00,VWS V14.00,2013-01-30 04:27:00,
2013-01-29 23:32:00,63.4,59.2,29.61,SSE,159,6.0,13.0,86,0.00,,---,0.00,0.00,VWS V14.00,2013-01-30 04:32:00,
2013-01-29 23:37:00,63.4,59.2,29.60,SE,144,12.0,19.0,86,0.00,,---,0.00,0.00,VWS V14.00,2013-01-30 04:37:00,
2013-01-29 23:42:00,63.5,59.2,29.60,SSE,167,7.0,24.0,86,0.00,,---,0.00,0.00,VWS V14.00,2013-01-30 04:42:00,
2013-01-29 23:47:00,63.6,59.3,29.60,SW,225,11.0,24.0,86,0.00,,---,0.00,0.00,VWS V14.00,2013-01-30 04:47:00,
2013-01-29 23:52:00,63.8,59.5,29.60,SSE,162,7.0,25.0,86,0.00,,---,0.00,0.00,VWS V14.00,2013-01-30 04:52:00,
2013-01-29 23:57:00,63.9,59.3,29.60,SSW,211,15.0,26.0,85,0.00,,---,0.00,0.00,VWS V14.00,2013-01-30 04:57:00,